Aérodrome :
LOGIN :

S'inscrire | Disclaimer

   EN    FR    IT 

 










Légende :    VFR   VFR Marginal   IFR   IFR Intensif   IFR Très Intensif
Visi : 
Plafond : 
>= 8 km
>= 3000ft
5 à 8 km
1000 à 3000 ft
1500m à 5 km
500 à 1000 ft
800 à 1500m
200 à 500 ft
< 800m
< 200 ft
Symboles :   Orages  Brouillard  Fortes neiges  Fortes précipitations  Vent > 20 kt
SIGMETs :   Divers  Orages  Givrage  Turbulence  Onde Orograph.  Cendres Volcan.






- Altitude de l'aérodrome : 172 ft
- Code IATA : LPI


ESSL - Saab

DERNIER METAR :
  • 172050Z 13004KT 3400 DZ VV011 10/10 Q1009

METARs EXPIRÉS :
  • 172020Z 11005KT 4500 DZ BKN003 OVC021 09/09 Q1009
  • 171950Z 10005KT 3700 -RA BKN002 OVC016 09/09 Q1009
  • 171920Z 11005KT 3100 RA OVC003 09/09 Q1009 REDZ
  • 171850Z 11005KT 5000 DZ OVC003 09/09 Q1009 REDZ
  • 171820Z 12004KT 7000 DZ OVC003 09/09 Q1009 REDZ

TAF TAF ESSL
Valide du 17 à 18h jusqu'au 17 à 22h UTC


171730Z 1718/1722 11004KT 9999 BKN006
TEMPO 1718/1722 2000 RADZ BR BKN004



MET'MAP, la Météo Aéronautique d'un coup d'oeil ! - Copyright ORBIFLY Décembre 2007 - Disclaimer

ORBIFLY MET'MAP TEAM :

Programmation & Développement : Alexandra Zaïnal
Conception & Développement : Baudouin d'Aumeries
Co-Programmation & Développement : Marc-Olivier Méhu
Soutien technique & logistique : Manuel Goepfert

Contact : metmap@orbifly.com




SOURCES & CREDITS :

   NOAA